Time;durP1;ratioP1;P1;durP2;ratioP2;P2;SDS_P1;SDS_P2;PMS_P1;PMS_P2;Temp;Humidity;BMP_temperature;BMP_pressure;BME280_temperature;BME280_humidity;BME280_pressure;Samples;Min_cycle;Max_cycle;Signal;HPM_P1;HPM_P2
2023/05/19 00:01:02;;;;;;;;;14.25;13.00;;;;;16.65;41.16;101729.66;4992984;28;45441;-62
2023/05/19 00:03:29;;;;;;;;;12.00;11.50;;;;;16.77;41.07;101753.84;4994835;28;45348;-62
2023/05/19 00:05:55;;;;;;;;;16.00;15.00;;;;;16.64;41.82;101740.97;4994516;28;45439;-63
2023/05/19 00:08:22;;;;;;;;;18.20;14.00;;;;;16.56;42.20;101752.34;4961036;28;45646;-62
2023/05/19 00:10:47;;;;;;;;;19.40;17.00;;;;;16.56;42.26;101753.19;4994321;28;45339;-63
2023/05/19 00:13:13;;;;;;;;;16.25;13.25;;;;;16.56;42.57;101755.97;4994415;28;45393;-62
2023/05/19 00:15:39;;;;;;;;;17.50;12.00;;;;;16.45;42.85;101749.25;4994658;28;45281;-63
2023/05/19 00:18:04;;;;;;;;;18.50;16.25;;;;;16.45;43.13;101757.56;4994714;28;46287;-63
2023/05/19 00:20:30;;;;;;;;;14.00;14.00;;;;;16.46;43.28;101761.16;4976405;28;45398;-63
2023/05/19 00:22:55;;;;;;;;;13.00;13.00;;;;;16.43;43.17;101767.19;4994376;28;45358;-63
2023/05/19 00:25:21;;;;;;;;;14.00;12.25;;;;;16.41;43.06;101745.22;4992961;28;45234;-63
2023/05/19 00:27:47;;;;;;;;;15.00;14.40;;;;;16.47;43.39;101757.31;4991665;28;45457;-63
2023/05/19 00:30:13;;;;;;;;;17.25;12.25;;;;;16.49;43.62;101755.19;4994030;28;45728;-62
2023/05/19 00:32:38;;;;;;;;;14.50;12.25;;;;;16.45;43.47;101759.47;4994302;28;45371;-62
2023/05/19 00:35:05;;;;;;;;;17.50;13.75;;;;;16.29;44.01;101739.59;4994296;28;45569;-63
2023/05/19 00:37:30;;;;;;;;;13.00;10.00;;;;;16.31;44.13;101742.09;4993853;28;45892;-62
2023/05/19 00:39:57;;;;;;;;;15.75;15.75;;;;;16.30;44.37;101757.03;4994160;28;45301;-61
2023/05/19 00:42:22;;;;;;;;;17.00;15.40;;;;;16.19;44.55;101755.84;4976394;28;45306;-64
2023/05/19 00:44:48;;;;;;;;;19.50;14.00;;;;;16.12;45.01;101750.38;4994283;28;45476;-64
2023/05/19 00:47:13;;;;;;;;;15.00;12.25;;;;;16.02;45.09;101737.03;4993779;28;46734;-64
2023/05/19 00:49:39;;;;;;;;;17.00;16.25;;;;;16.08;45.06;101754.66;5008998;28;45269;-62
2023/05/19 00:52:05;;;;;;;;;18.00;17.75;;;;;16.04;45.28;101745.97;4994270;28;45234;-64
2023/05/19 00:54:32;;;;;;;;;15.60;13.80;;;;;15.99;45.34;101741.09;4994252;28;45749;-62
2023/05/19 00:56:58;;;;;;;;;19.00;16.20;;;;;15.92;45.44;101734.75;4976053;28;46946;-62
2023/05/19 00:59:23;;;;;;;;;16.00;14.00;;;;;15.99;45.40;101738.31;4975736;28;45350;-62
2023/05/19 01:01:49;;;;;;;;;16.25;14.50;;;;;16.00;45.41;101733.63;4992383;28;45447;-62
2023/05/19 01:04:18;;;;;;;;;13.50;9.50;;;;;16.01;45.58;101738.09;4994328;28;45246;-62
2023/05/19 01:06:53;;;;;;;;;17.40;16.40;;;;;16.01;45.73;101737.25;4993636;28;46315;-62
2023/05/19 01:09:21;;;;;;;;;18.00;14.80;;;;;16.01;45.74;101743.63;4993931;28;45434;-62
2023/05/19 01:11:49;;;;;;;;;17.40;15.40;;;;;16.02;45.60;101742.56;4959619;28;45388;-62
2023/05/19 01:14:15;;;;;;;;;21.80;17.00;;;;;15.98;45.34;101724.69;4994198;28;45446;-62
2023/05/19 01:16:55;;;;;;;;;24.25;19.50;;;;;15.92;45.92;101720.91;4993529;28;45982;-62
2023/05/19 01:19:48;;;;;;;;;18.80;14.80;;;;;16.00;45.72;101733.63;4993636;28;45248;-61
2023/05/19 01:22:29;;;;;;;;;21.40;16.80;;;;;15.85;46.15;101737.53;4993824;28;45439;-62
2023/05/19 01:24:58;;;;;;;;;16.40;13.80;;;;;15.84;46.10;101723.91;4994529;28;45764;-63
2023/05/19 01:28:14;;;;;;;;;18.20;16.80;;;;;15.90;46.26;101728.53;4996276;28;46195;-62
2023/05/19 01:30:41;;;;;;;;;13.20;12.80;;;;;15.94;46.04;101731.75;4970166;28;45492;-62
2023/05/19 01:33:08;;;;;;;;;20.00;16.60;;;;;15.86;45.98;101725.38;5011736;28;45478;-62
2023/05/19 01:35:35;;;;;;;;;19.00;18.00;;;;;15.84;46.77;101726.66;5011892;28;45403;-62
2023/05/19 01:38:00;;;;;;;;;18.00;14.80;;;;;15.84;46.40;101727.53;4979899;28;46806;-61
2023/05/19 01:40:26;;;;;;;;;20.00;16.75;;;;;15.78;46.58;101710.97;4998229;28;45426;-62
2023/05/19 01:42:52;;;;;;;;;18.00;14.25;;;;;15.82;46.48;101723.28;5015404;28;45418;-62
2023/05/19 01:45:18;;;;;;;;;18.00;16.60;;;;;15.78;46.96;101716.50;5016188;28;45430;-62
2023/05/19 01:47:45;;;;;;;;;8.00;6.50;;;;;15.75;46.83;101720.59;4998207;28;45392;-61
2023/05/19 01:50:11;;;;;;;;;17.60;15.00;;;;;15.68;47.04;101723.38;5031483;28;45434;-62
2023/05/19 01:52:36;;;;;;;;;19.00;16.50;;;;;15.52;47.36;101713.69;5016463;28;45357;-62
2023/05/19 01:55:02;;;;;;;;;15.75;14.50;;;;;15.63;47.62;101728.72;4998568;28;45729;-62
2023/05/19 01:57:50;;;;;;;;;22.75;20.25;;;;;15.67;46.88;101718.91;5015925;28;46258;-62
2023/05/19 02:00:29;;;;;;;;;19.60;18.20;;;;;15.71;47.15;101719.31;4992845;28;45519;-61
2023/05/19 02:03:01;;;;;;;;;20.00;18.20;;;;;15.65;47.21;101725.75;4996321;28;45322;-63
2023/05/19 02:05:52;;;;;;;;;18.20;15.60;;;;;15.59;47.30;101725.56;4996287;28;45492;-62
2023/05/19 02:08:29;;;;;;;;;18.00;15.40;;;;;15.57;46.92;101724.06;4995997;28;46178;-62
2023/05/19 02:10:57;;;;;;;;;17.40;15.60;;;;;15.53;47.36;101726.44;4996211;28;46057;-62
2023/05/19 02:13:23;;;;;;;;;19.00;16.80;;;;;15.42;47.58;101710.56;4996122;28;45355;-62
2023/05/19 02:15:48;;;;;;;;;22.75;19.50;;;;;15.28;48.20;101712.53;4994723;28;45392;-62
2023/05/19 02:18:16;;;;;;;;;16.50;16.00;;;;;15.24;48.24;101717.66;4996004;28;46143;-63
2023/05/19 02:20:42;;;;;;;;;18.20;15.40;;;;;15.28;48.30;101730.00;4994439;28;45475;-63
2023/05/19 02:23:07;;;;;;;;;21.25;19.25;;;;;15.31;48.30;101728.66;4995740;28;45341;-63
2023/05/19 02:25:33;;;;;;;;;17.75;16.75;;;;;15.38;47.70;101723.13;4995716;28;45341;-64
2023/05/19 02:27:58;;;;;;;;;22.25;18.75;;;;;15.47;47.54;101721.78;4994119;28;45263;-63
2023/05/19 02:30:24;;;;;;;;;16.25;16.00;;;;;15.46;47.72;101717.31;4995474;28;45689;-63
2023/05/19 02:32:49;;;;;;;;;21.25;18.00;;;;;15.45;47.61;101723.94;4995939;28;45374;-62
2023/05/19 02:35:15;;;;;;;;;18.50;17.25;;;;;15.39;47.86;101727.59;4994085;28;45463;-62
2023/05/19 02:37:40;;;;;;;;;15.50;15.50;;;;;15.33;48.14;101721.03;4994367;28;46120;-62
2023/05/19 02:40:06;;;;;;;;;21.25;16.75;;;;;15.29;48.03;101726.16;4995237;28;45396;-63
2023/05/19 02:42:32;;;;;;;;;25.60;19.80;;;;;15.25;48.42;101724.00;4995517;28;45212;-62
2023/05/19 02:44:59;;;;;;;;;15.00;15.00;;;;;15.20;47.97;101719.16;4995755;28;45382;-63
2023/05/19 02:47:24;;;;;;;;;20.00;18.80;;;;;15.22;48.03;101714.28;4994999;28;46434;-62
2023/05/19 02:49:49;;;;;;;;;18.50;16.50;;;;;15.14;48.14;101700.66;4995252;28;45852;-62
2023/05/19 02:52:15;;;;;;;;;22.50;19.75;;;;;15.25;47.83;101713.81;4995779;28;45881;-62
2023/05/19 02:54:41;;;;;;;;;21.50;19.75;;;;;15.23;47.95;101717.88;5010913;28;45223;-63
2023/05/19 02:57:06;;;;;;;;;23.75;17.75;;;;;15.17;48.00;101711.31;4994682;28;45353;-63
2023/05/19 02:59:32;;;;;;;;;17.75;16.50;;;;;15.10;48.28;101711.31;4995120;28;45366;-62
2023/05/19 03:02:00;;;;;;;;;17.75;16.75;;;;;14.90;49.03;101695.66;4995205;28;45416;-62
2023/05/19 03:04:27;;;;;;;;;20.00;15.60;;;;;15.00;48.72;101705.41;4995414;28;45423;-63
2023/05/19 03:06:53;;;;;;;;;18.20;17.60;;;;;15.01;48.81;101705.19;4977426;28;46311;-62
2023/05/19 03:09:18;;;;;;;;;17.75;15.00;;;;;15.09;48.55;101704.09;4977731;28;45606;-62
2023/05/19 03:11:44;;;;;;;;;18.50;16.25;;;;;15.10;48.75;101705.78;4994806;28;45428;-63
2023/05/19 03:14:10;;;;;;;;;19.25;19.25;;;;;15.10;48.35;101699.44;4995292;28;45568;-62
2023/05/19 03:16:36;;;;;;;;;23.60;19.60;;;;;15.10;48.69;101703.03;4994643;28;46156;-62
2023/05/19 03:19:01;;;;;;;;;18.25;17.00;;;;;15.09;48.75;101700.50;4977595;28;45379;-62
2023/05/19 03:21:27;;;;;;;;;22.25;19.00;;;;;15.08;48.36;101705.16;4994605;28;45349;-62
2023/05/19 03:23:53;;;;;;;;;24.25;20.00;;;;;15.06;48.42;101707.31;4977419;28;45808;-62
2023/05/19 03:26:19;;;;;;;;;23.20;19.20;;;;;15.00;48.79;101703.50;4994047;28;45511;-62
2023/05/19 03:28:44;;;;;;;;;22.25;18.25;;;;;14.88;49.16;101705.22;4993317;28;45887;-62
2023/05/19 03:31:10;;;;;;;;;17.50;17.25;;;;;14.90;49.07;101700.34;4995214;28;45848;-62
2023/05/19 03:33:35;;;;;;;;;16.50;16.50;;;;;14.93;48.75;101704.59;4994163;28;45319;-62
2023/05/19 03:36:01;;;;;;;;;22.50;19.00;;;;;14.90;49.19;101703.13;4994681;28;45592;-62
2023/05/19 03:38:26;;;;;;;;;18.50;17.50;;;;;14.82;48.95;101698.66;4995045;28;45450;-62
2023/05/19 03:40:52;;;;;;;;;21.75;18.50;;;;;14.88;48.85;101703.31;4977386;28;45427;-62
2023/05/19 03:43:18;;;;;;;;;18.20;16.40;;;;;14.66;49.39;101699.94;4995396;28;45359;-63
2023/05/19 03:45:44;;;;;;;;;18.40;17.80;;;;;14.65;49.77;101695.50;4993863;28;46676;-62
2023/05/19 03:48:10;;;;;;;;;19.25;17.00;;;;;14.71;49.41;101708.44;4992755;28;45273;-62
2023/05/19 03:50:36;;;;;;;;;17.50;17.25;;;;;14.69;49.02;101716.09;4994975;28;45139;-62
2023/05/19 03:53:02;;;;;;;;;22.00;17.40;;;;;14.65;49.10;101712.06;4995013;28;45587;-62
2023/05/19 03:55:28;;;;;;;;;17.00;15.75;;;;;14.43;49.96;101684.72;4976322;28;47208;-62
2023/05/19 03:57:54;;;;;;;;;22.80;19.20;;;;;14.45;49.65;101709.31;4993189;28;45476;-62
2023/05/19 04:00:20;;;;;;;;;21.60;19.80;;;;;14.45;49.89;101698.28;4994247;28;45385;-62
2023/05/19 04:02:45;;;;;;;;;24.50;21.75;;;;;14.51;49.92;101702.94;4994500;28;45525;-62
2023/05/19 04:05:11;;;;;;;;;23.00;18.75;;;;;14.31;50.12;101694.69;4994091;28;46025;-62
2023/05/19 04:07:36;;;;;;;;;21.25;17.75;;;;;14.43;50.45;101709.56;5009406;28;45458;-62
2023/05/19 04:10:05;;;;;;;;;22.25;19.25;;;;;14.44;49.73;101702.97;4976698;28;45387;-62
2023/05/19 04:12:31;;;;;;;;;25.80;22.00;;;;;14.58;49.62;101712.06;5009488;28;45293;-61
2023/05/19 04:14:57;;;;;;;;;28.75;20.75;;;;;14.55;49.33;101706.13;4993981;28;45787;-63
2023/05/19 04:17:25;;;;;;;;;23.75;18.50;;;;;14.56;49.44;101716.97;4993735;28;45677;-64
2023/05/19 04:19:53;;;;;;;;;15.80;15.80;;;;;14.61;49.65;101714.41;4994318;28;45360;-63
2023/05/19 04:22:19;;;;;;;;;16.20;16.00;;;;;14.55;49.60;101703.38;4994067;28;45377;-62
2023/05/19 04:24:45;;;;;;;;;22.00;19.50;;;;;14.56;49.44;101718.91;4993948;28;46209;-63
2023/05/19 04:27:11;;;;;;;;;25.80;21.40;;;;;14.53;49.73;101717.41;4993772;28;45273;-63
2023/05/19 04:29:37;;;;;;;;;24.60;19.80;;;;;14.53;49.16;101716.56;4994513;28;45292;-63
2023/05/19 04:32:06;;;;;;;;;22.80;21.00;;;;;14.57;49.03;101710.38;4994001;28;45340;-63
2023/05/19 04:34:34;;;;;;;;;21.80;20.60;;;;;14.52;49.60;101712.97;4993972;28;46630;-63
2023/05/19 04:37:01;;;;;;;;;21.40;17.60;;;;;14.40;49.82;101709.16;4976431;28;45342;-63
2023/05/19 04:39:26;;;;;;;;;24.20;23.00;;;;;14.50;49.20;101720.59;4993775;28;45388;-63
2023/05/19 04:41:53;;;;;;;;;26.50;19.50;;;;;14.54;49.10;101710.81;4994266;28;45566;-63
2023/05/19 04:44:19;;;;;;;;;23.40;18.60;;;;;14.53;49.10;101719.31;4976495;28;46470;-61
2023/05/19 04:46:44;;;;;;;;;21.50;17.00;;;;;14.56;49.33;101728.03;4939863;28;45484;-62
2023/05/19 04:49:13;;;;;;;;;29.75;24.50;;;;;14.47;49.21;101716.34;4974064;28;45474;-61
2023/05/19 04:51:40;;;;;;;;;23.20;20.40;;;;;14.45;49.20;101717.63;4974363;28;45404;-61
2023/05/19 04:54:08;;;;;;;;;26.40;22.80;;;;;14.53;49.68;101727.59;4956434;28;46506;-61
2023/05/19 04:56:34;;;;;;;;;21.60;18.80;;;;;14.57;49.10;101715.06;4973617;28;45439;-62
2023/05/19 04:59:00;;;;;;;;;21.25;18.00;;;;;14.64;48.73;101715.91;4974528;28;45448;-61
2023/05/19 05:01:25;;;;;;;;;28.00;24.00;;;;;14.49;48.68;101724.41;4987320;28;45489;-62
2023/05/19 05:03:54;;;;;;;;;19.75;17.75;;;;;14.55;49.02;101725.47;4997088;28;45725;-62
2023/05/19 05:06:21;;;;;;;;;26.40;21.80;;;;;14.29;49.33;101738.25;4997471;28;45310;-63
2023/05/19 05:08:47;;;;;;;;;23.00;20.00;;;;;14.15;49.67;101729.94;4996901;28;45255;-62
2023/05/19 05:11:13;;;;;;;;;23.00;21.20;;;;;14.15;49.77;101720.84;4997396;28;45574;-62
2023/05/19 05:13:39;;;;;;;;;22.00;18.50;;;;;14.27;49.46;101741.22;4996813;28;47537;-61
2023/05/19 05:16:05;;;;;;;;;21.25;17.75;;;;;14.40;49.19;101740.34;4995378;28;45764;-63
2023/05/19 05:18:32;;;;;;;;;22.20;21.20;;;;;14.43;49.20;101742.72;4997211;28;45312;-60
2023/05/19 05:20:57;;;;;;;;;21.00;21.00;;;;;14.20;49.84;101748.66;4997410;28;45521;-62
2023/05/19 05:23:23;;;;;;;;;21.75;20.00;;;;;14.25;49.59;101754.38;4996866;28;45959;-61
2023/05/19 05:25:49;;;;;;;;;20.00;18.75;;;;;14.27;49.43;101740.34;4996498;28;45297;-62
2023/05/19 05:28:14;;;;;;;;;21.75;20.75;;;;;14.42;49.60;101740.16;4996829;28;45301;-62
2023/05/19 05:30:40;;;;;;;;;23.00;19.25;;;;;14.49;48.81;101741.00;4979698;28;45400;-61
2023/05/19 05:33:06;;;;;;;;;29.40;23.60;;;;;14.51;49.05;101747.13;4996635;28;45315;-61
2023/05/19 05:35:31;;;;;;;;;21.75;17.00;;;;;14.45;48.85;101754.38;4962796;28;45789;-62
2023/05/19 05:37:57;;;;;;;;;18.75;16.75;;;;;14.36;48.81;101739.09;4996750;28;45438;-63
2023/05/19 05:40:22;;;;;;;;;19.50;12.00;;;;;14.38;48.70;101764.59;4996986;28;45605;-63
2023/05/19 05:42:48;;;;;;;;;17.75;16.25;;;;;14.15;49.25;101752.03;4978641;28;45815;-62
2023/05/19 05:45:14;;;;;;;;;21.00;17.75;;;;;14.20;49.34;101757.78;4971472;28;45332;-62
2023/05/19 05:47:40;;;;;;;;;24.00;20.50;;;;;14.17;49.16;101744.41;4980836;28;45286;-62
2023/05/19 05:50:07;;;;;;;;;16.00;12.40;;;;;14.21;49.47;101751.19;4996066;28;46379;-62
2023/05/19 05:52:33;;;;;;;;;20.20;18.80;;;;;14.21;49.28;101742.91;4995975;28;46828;-61
2023/05/19 05:54:58;;;;;;;;;21.50;19.00;;;;;14.15;49.42;101746.50;4978980;28;45518;-61
2023/05/19 05:57:24;;;;;;;;;20.25;17.00;;;;;14.28;49.12;101759.47;4996112;28;45390;-63
2023/05/19 05:59:49;;;;;;;;;20.50;17.00;;;;;14.34;48.98;101761.41;4996716;28;45384;-61
2023/05/19 06:02:16;;;;;;;;;23.25;22.00;;;;;14.47;48.75;101759.69;4996189;28;46362;-62
2023/05/19 06:04:42;;;;;;;;;21.00;18.00;;;;;14.52;48.35;101746.09;4996049;28;45408;-63
2023/05/19 06:07:08;;;;;;;;;21.60;18.20;;;;;14.64;48.35;101757.34;4996572;28;45343;-62
2023/05/19 06:09:34;;;;;;;;;22.00;21.50;;;;;14.69;48.44;101756.69;4996737;28;45349;-62
2023/05/19 06:12:00;;;;;;;;;16.50;15.50;;;;;14.70;48.14;101758.38;4995963;28;45596;-62
2023/05/19 06:14:25;;;;;;;;;29.25;23.25;;;;;14.62;48.37;101762.25;4995838;28;45439;-61
2023/05/19 06:16:51;;;;;;;;;18.25;18.25;;;;;14.46;48.86;101766.28;4996305;28;45387;-61
2023/05/19 06:19:18;;;;;;;;;22.75;20.75;;;;;14.45;48.45;101751.63;4996856;28;45359;-61
2023/05/19 06:21:44;;;;;;;;;26.60;23.00;;;;;14.62;48.73;101770.53;4995879;28;47573;-61
2023/05/19 06:24:09;;;;;;;;;20.75;20.75;;;;;14.70;48.49;101763.91;4996333;28;45331;-61
2023/05/19 06:26:35;;;;;;;;;23.25;19.00;;;;;14.71;48.20;101766.47;4996085;28;45330;-61
2023/05/19 06:29:00;;;;;;;;;23.50;20.25;;;;;14.56;48.29;101754.81;4976637;28;45531;-61
2023/05/19 06:31:27;;;;;;;;;22.50;20.25;;;;;14.52;49.28;101773.72;4978212;28;46778;-59
2023/05/19 06:33:52;;;;;;;;;23.60;19.40;;;;;14.59;48.55;101765.41;4992368;28;45383;-62
2023/05/19 06:36:18;;;;;;;;;24.00;21.50;;;;;14.58;48.45;101770.09;4983233;28;45408;-62
2023/05/19 06:38:44;;;;;;;;;24.00;22.25;;;;;14.53;49.02;101749.69;4974180;28;45550;-59
2023/05/19 06:41:09;;;;;;;;;30.25;24.25;;;;;14.50;49.00;101748.22;4975437;28;46098;-60
2023/05/19 06:43:35;;;;;;;;;26.75;19.00;;;;;14.58;48.44;101755.44;4974469;28;45682;-60
2023/05/19 06:46:01;;;;;;;;;16.75;15.50;;;;;14.64;48.93;101754.59;4975639;28;45487;-62
2023/05/19 06:48:26;;;;;;;;;21.25;19.00;;;;;14.76;48.34;101760.31;4976860;28;45487;-61
2023/05/19 06:50:52;;;;;;;;;30.00;24.00;;;;;14.88;47.90;101763.28;4975316;28;46704;-62
2023/05/19 06:53:18;;;;;;;;;21.00;19.80;;;;;14.69;48.17;101742.88;4990391;28;45364;-64
2023/05/19 06:55:45;;;;;;;;;23.00;20.75;;;;;14.65;48.47;101756.28;4975827;28;45347;-62
2023/05/19 06:58:11;;;;;;;;;23.40;18.80;;;;;14.70;48.71;101756.50;4990343;28;45395;-65
2023/05/19 07:00:38;;;;;;;;;24.50;20.50;;;;;14.73;48.74;101749.69;4977074;28;45757;-64
2023/05/19 07:03:04;;;;;;;;;24.20;22.00;;;;;14.73;48.44;101753.28;4994336;28;45328;-64
2023/05/19 07:05:29;;;;;;;;;20.75;19.00;;;;;14.83;48.29;101744.56;4977291;28;45525;-62
2023/05/19 07:07:55;;;;;;;;;24.25;18.50;;;;;14.96;48.25;101749.25;4977312;28;45841;-62
2023/05/19 07:10:20;;;;;;;;;22.50;20.25;;;;;15.06;47.85;101743.25;4995096;28;45814;-63
2023/05/19 07:12:46;;;;;;;;;22.50;21.25;;;;;15.07;47.59;101741.31;4989234;28;45739;-63
2023/05/19 07:15:11;;;;;;;;;25.25;19.75;;;;;15.13;47.58;101749.59;4994753;28;45797;-64
2023/05/19 07:17:37;;;;;;;;;25.75;22.50;;;;;15.10;47.68;101736.19;4995042;28;45414;-62
2023/05/19 07:20:05;;;;;;;;;26.25;25.25;;;;;15.24;47.60;101753.59;4976841;28;47440;-62
2023/05/19 07:22:33;;;;;;;;;21.80;17.00;;;;;15.23;47.60;101749.16;4994280;28;45511;-62
2023/05/19 07:25:02;;;;;;;;;26.80;20.20;;;;;15.27;47.34;101758.69;4993158;28;45328;-63
2023/05/19 07:27:27;;;;;;;;;25.00;21.00;;;;;15.30;47.36;101754.63;4936572;28;45807;-60
2023/05/19 07:29:53;;;;;;;;;20.25;17.00;;;;;15.35;47.63;101742.91;4984876;28;46056;-64
2023/05/19 07:32:19;;;;;;;;;18.25;18.25;;;;;15.34;47.00;101741.22;4994450;28;45837;-60
2023/05/19 07:34:44;;;;;;;;;26.75;21.50;;;;;15.40;46.84;101740.34;4994358;28;45738;-64
2023/05/19 07:37:10;;;;;;;;;23.00;16.75;;;;;15.55;46.98;101751.13;4993070;28;45336;-63
2023/05/19 07:39:36;;;;;;;;;25.00;23.75;;;;;15.62;46.28;101751.94;4992284;28;46341;-64
2023/05/19 07:42:01;;;;;;;;;21.50;18.50;;;;;15.65;46.54;101736.81;5009077;28;45385;-62
2023/05/19 07:44:27;;;;;;;;;23.75;22.50;;;;;15.76;46.42;101744.41;4994259;28;45365;-63
2023/05/19 07:46:53;;;;;;;;;21.50;21.25;;;;;15.85;46.19;101739.47;4967213;28;45668;-64
2023/05/19 07:49:18;;;;;;;;;24.80;23.20;;;;;15.93;46.42;101741.13;4994230;28;46222;-64
2023/05/19 07:51:44;;;;;;;;;20.50;20.50;;;;;16.02;46.07;101730.63;4992165;28;45372;-63
2023/05/19 07:54:10;;;;;;;;;21.00;21.00;;;;;16.01;45.88;101732.53;4974884;28;45570;-65
2023/05/19 07:56:35;;;;;;;;;17.50;17.00;;;;;16.05;46.18;101736.56;4992972;28;45441;-65
2023/05/19 07:59:01;;;;;;;;;22.00;18.75;;;;;16.09;45.93;101735.06;4992317;28;45496;-63
2023/05/19 08:01:29;;;;;;;;;28.20;20.60;;;;;16.11;45.65;101734.81;5000011;28;45798;-64
2023/05/19 08:03:56;;;;;;;;;27.60;24.40;;;;;16.19;45.86;101725.38;4992274;28;45462;-61
2023/05/19 08:06:21;;;;;;;;;25.40;21.00;;;;;16.26;45.39;101726.19;4974996;28;45515;-62
2023/05/19 08:08:47;;;;;;;;;22.00;20.50;;;;;16.31;45.34;101714.41;4991597;28;45762;-64
2023/05/19 08:11:13;;;;;;;;;26.25;22.50;;;;;16.39;45.11;101726.06;4993534;28;45466;-62
2023/05/19 08:13:38;;;;;;;;;23.00;20.75;;;;;16.33;45.56;101731.69;4987329;28;45751;-62
2023/05/19 08:16:04;;;;;;;;;28.25;24.50;;;;;16.24;45.24;101711.72;4983776;28;45553;-63
2023/05/19 08:18:30;;;;;;;;;24.75;21.75;;;;;16.34;45.79;101725.88;4978019;28;48488;-63
2023/05/19 08:20:55;;;;;;;;;24.00;20.50;;;;;16.46;45.05;101726.00;4995943;28;45488;-62
2023/05/19 08:23:21;;;;;;;;;23.00;20.00;;;;;16.53;44.85;101724.03;4989195;28;45476;-62
2023/05/19 08:25:47;;;;;;;;;21.25;18.25;;;;;16.57;44.87;101707.78;4974163;28;45564;-62
2023/05/19 08:28:12;;;;;;;;;21.50;18.00;;;;;16.63;44.80;101711.56;4991827;28;45487;-64
2023/05/19 08:30:37;;;;;;;;;21.50;19.50;;;;;16.70;44.55;101719.81;4994655;28;45359;-63
2023/05/19 08:33:03;;;;;;;;;23.25;20.75;;;;;16.77;44.68;101712.28;4993210;28;45415;-63
2023/05/19 08:35:29;;;;;;;;;19.75;17.50;;;;;16.67;44.31;101683.13;4974468;28;45474;-63
2023/05/19 08:37:54;;;;;;;;;18.50;13.75;;;;;16.93;43.92;101711.63;4979708;28;45842;-63
2023/05/19 08:40:20;;;;;;;;;19.25;17.00;;;;;16.83;44.24;101693.84;4996312;28;45741;-62
2023/05/19 08:42:45;;;;;;;;;20.75;17.75;;;;;17.02;43.59;101714.16;4996355;28;45364;-64
2023/05/19 08:45:11;;;;;;;;;19.00;18.00;;;;;17.04;43.58;101704.50;4993692;28;46006;-63
2023/05/19 08:47:37;;;;;;;;;23.25;20.00;;;;;17.02;44.05;101703.91;4975067;28;45402;-63
2023/05/19 08:50:06;;;;;;;;;18.00;18.00;;;;;17.11;43.89;101695.25;5010426;28;45296;-64
2023/05/19 08:52:37;;;;;;;;;22.40;16.20;;;;;17.14;43.48;101698.41;5027792;28;45395;-62
2023/05/19 08:55:15;;;;;;;;;20.40;19.00;;;;;17.17;43.75;101689.63;5026730;28;45436;-62
2023/05/19 08:57:41;;;;;;;;;20.00;18.80;;;;;17.23;43.66;101693.38;4993672;28;47721;-63
2023/05/19 09:00:13;;;;;;;;;17.75;15.75;;;;;17.27;43.62;101680.75;5010366;28;45419;-60
2023/05/19 09:02:38;;;;;;;;;21.20;15.00;;;;;17.37;42.71;101694.06;4986743;28;45612;-61
2023/05/19 09:05:04;;;;;;;;;24.00;23.00;;;;;17.42;43.15;101691.44;4974917;28;45829;-63
2023/05/19 09:07:33;;;;;;;;;20.00;19.00;;;;;17.48;43.43;101696.06;4977478;28;45756;-60
2023/05/19 09:10:00;;;;;;;;;23.40;18.40;;;;;17.48;42.95;101686.88;4977265;28;45696;-62
2023/05/19 09:12:25;;;;;;;;;18.80;18.80;;;;;17.54;43.06;101682.28;4994666;28;45510;-62
2023/05/19 09:14:51;;;;;;;;;18.50;17.25;;;;;17.60;42.92;101673.03;4994059;28;45340;-61
2023/05/19 09:17:17;;;;;;;;;19.50;17.75;;;;;17.74;42.73;101673.69;4968350;28;45683;-62
2023/05/19 09:19:46;;;;;;;;;20.80;17.20;;;;;17.78;42.68;101665.72;4980200;28;45356;-62
2023/05/19 09:22:13;;;;;;;;;23.00;18.00;;;;;17.88;42.43;101669.59;4994919;28;45538;-63
2023/05/19 09:24:39;;;;;;;;;24.00;20.60;;;;;17.98;42.54;101671.78;4977685;28;45652;-58
2023/05/19 09:27:05;;;;;;;;;16.00;16.00;;;;;17.99;42.38;101665.13;4983881;28;46340;-61
2023/05/19 09:29:30;;;;;;;;;18.00;17.00;;;;;17.92;41.64;101652.47;4994398;28;45427;-61
2023/05/19 09:32:00;;;;;;;;;18.50;15.25;;;;;18.05;41.61;101660.59;4994489;28;45462;-61
2023/05/19 09:34:26;;;;;;;;;15.40;14.00;;;;;18.02;41.42;101649.94;4993100;28;45620;-64
2023/05/19 09:36:52;;;;;;;;;16.00;14.25;;;;;17.97;41.74;101663.69;4992541;28;46220;-59
2023/05/19 09:39:21;;;;;;;;;17.40;16.80;;;;;17.95;41.78;101661.16;4993012;28;45478;-62
2023/05/19 09:41:49;;;;;;;;;18.60;17.60;;;;;17.92;41.46;101642.19;4976914;28;45374;-61
2023/05/19 09:44:29;;;;;;;;;17.60;13.40;;;;;18.02;41.93;101645.22;4976922;28;45469;-63
2023/05/19 09:46:54;;;;;;;;;12.20;11.40;;;;;18.23;42.05;101644.91;4966619;28;46890;-60
2023/05/19 09:49:21;;;;;;;;;20.25;18.00;;;;;18.35;41.45;101642.97;4976186;28;45912;-61
2023/05/19 09:51:53;;;;;;;;;13.40;12.80;;;;;18.42;41.45;101656.75;4994795;28;45449;-62
2023/05/19 09:54:20;;;;;;;;;16.00;14.60;;;;;18.46;41.27;101638.47;4995687;28;45606;-60
2023/05/19 09:56:50;;;;;;;;;19.40;16.40;;;;;18.60;41.15;101643.78;4991457;28;48158;-64
2023/05/19 09:59:15;;;;;;;;;20.00;16.60;;;;;18.56;41.23;101627.59;4992963;28;45463;-63
2023/05/19 10:01:45;;;;;;;;;12.75;12.25;;;;;18.72;40.82;101641.00;4976381;28;45510;-62
2023/05/19 10:04:10;;;;;;;;;15.00;13.60;;;;;18.79;41.01;101650.03;5011088;28;45500;-61
2023/05/19 10:06:36;;;;;;;;;15.25;14.00;;;;;18.90;40.42;101643.56;5013588;28;46450;-62
2023/05/19 10:09:01;;;;;;;;;12.25;12.25;;;;;18.99;40.79;101652.38;5011984;28;45548;-62
2023/05/19 10:11:27;;;;;;;;;16.50;12.50;;;;;18.98;39.60;101635.97;5013827;28;45413;-62
2023/05/19 10:13:52;;;;;;;;;10.25;7.25;;;;;19.12;39.56;101637.38;4988342;28;45584;-62
2023/05/19 10:16:18;;;;;;;;;11.00;10.25;;;;;19.17;38.38;101634.72;5007035;28;46734;-60
2023/05/19 10:18:43;;;;;;;;;11.00;11.00;;;;;19.22;39.06;101645.91;5011884;28;45316;-62
2023/05/19 10:21:08;;;;;;;;;13.25;12.00;;;;;19.23;39.14;101636.47;4981608;28;45431;-61
2023/05/19 10:23:34;;;;;;;;;15.00;12.75;;;;;19.36;38.84;101634.47;4981125;28;45664;-63
2023/05/19 10:26:00;;;;;;;;;13.50;11.75;;;;;19.39;38.50;101633.16;5005737;28;46132;-62
2023/05/19 10:28:30;;;;;;;;;13.00;12.00;;;;;19.37;38.36;101620.31;4978313;28;45610;-63
2023/05/19 10:30:56;;;;;;;;;11.00;11.00;;;;;19.49;37.74;101639.75;4974571;28;45424;-62
2023/05/19 10:33:28;;;;;;;;;11.40;9.20;;;;;19.51;38.27;101631.16;4956919;28;45714;-62
2023/05/19 10:36:28;;;;;;;;;9.40;9.40;;;;;19.54;37.96;101618.66;4972710;28;45979;-62
2023/05/19 10:39:02;;;;;;;;;13.60;12.40;;;;;19.71;37.56;101629.81;4973140;28;45625;-60
2023/05/19 10:41:46;;;;;;;;;13.20;11.00;;;;;19.84;37.29;101632.25;4972770;28;45459;-62
2023/05/19 10:44:57;;;;;;;;;10.20;9.80;;;;;19.82;37.22;101628.91;4973177;28;45579;-62
2023/05/19 10:47:23;;;;;;;;;8.40;8.40;;;;;20.04;37.63;101617.88;4962543;28;45947;-61
2023/05/19 10:49:51;;;;;;;;;13.80;8.00;;;;;20.14;36.76;101625.53;4973446;28;45389;-62
2023/05/19 10:52:21;;;;;;;;;12.00;12.00;;;;;20.06;37.28;101620.38;4983025;28;46266;-62
2023/05/19 10:54:47;;;;;;;;;16.60;15.80;;;;;20.04;37.44;101619.78;4993619;28;45554;-62
2023/05/19 10:57:16;;;;;;;;;13.75;12.00;;;;;19.98;37.51;101612.44;4982799;28;45927;-60
2023/05/19 10:59:44;;;;;;;;;14.80;13.20;;;;;19.87;38.00;101617.00;4972917;28;45634;-62
2023/05/19 11:02:09;;;;;;;;;13.00;10.40;;;;;19.88;37.44;101616.75;4973362;28;45530;-63
2023/05/19 11:04:49;;;;;;;;;13.75;12.75;;;;;20.00;37.63;101613.03;4955035;28;45289;-63
2023/05/19 11:07:20;;;;;;;;;14.20;13.20;;;;;20.04;37.50;101608.66;4955481;28;47667;-61
2023/05/19 11:09:52;;;;;;;;;12.40;10.40;;;;;20.14;37.61;101606.03;4973603;28;45512;-62